Terminal Aerodrome Forecast
Issued by NWS Spokane, WA

Home | Current Version | Previous Version | Text Only | Print | Product List | Glossary On
Versions: 1 2 3 4 5 6 7 8 9 10 11 12 13 14 15 16 17 18 19 20 21 22 23 24 25 26 27 28 29 30 31 32 33 34 35 36 37 38 39 40 41 42
000
FTUS46 KOTX 182330
TAFGEG
TAF
KGEG 182330Z 1900/1924 03007KT P6SM VCSH SCT015 BKN040 BKN150
     FM190130 08005KT P6SM SCT050 BKN120
     FM191200 VRB03KT 6SM BR VCFG SCT002 SCT200
      TEMPO 1914/1916 3SM BR BKN004
     FM191600 20005KT P6SM SCT012 SCT200
     FM191800 29006KT P6SM SCT050 SCT200=

USA.gov is the U.S. government's official web portal to all federal, state and local government web resources and services.